Airport View

Enter AWOS ICAO identifier for current METAR.

ex. KFNL

KBUY 261154Z AUTO 32006KT 10SM CLR 24/16 A3014 RMK AO2 SLP199 T02440161 10244 20211 51017

26 Jun 2019 12:55

Frequency: 135.325

Phone: 336-570-9813

Other Area AWOS: KSCR - KIGX - KGSO - KTDF

TAF KGSO 261120Z 2612/2712 VRB05KT P6SM SCT250